Time;durP1;ratioP1;P1;durP2;ratioP2;P2;SDS_P1;SDS_P2;PMS_P1;PMS_P2;Temp;Humidity;BMP_temperature;BMP_pressure;BME280_temperature;BME280_humidity;BME280_pressure;Samples;Min_cycle;Max_cycle;Signal;HPM_P1;HPM_P2
2022/09/28 00:00:37;;;;;;;1999.90;999.90;;;14.70;99.90;;;;;;5114390;28;20119;-80
2022/09/28 00:03:02;;;;;;;1999.90;999.90;;;14.90;99.90;;;;;;5096006;28;20463;-80
2022/09/28 00:05:29;;;;;;;1999.90;999.90;;;15.10;99.90;;;;;;5113333;28;20074;-79
2022/09/28 00:07:55;;;;;;;1999.90;999.90;;;15.10;99.90;;;;;;5113754;28;20043;-80
2022/09/28 00:10:21;;;;;;;1999.90;999.90;;;15.10;99.90;;;;;;5113726;28;20080;-79
2022/09/28 00:12:54;;;;;;;1999.90;999.90;;;14.60;99.90;;;;;;5095779;28;20383;-80
2022/09/28 00:15:20;;;;;;;1999.90;999.90;;;14.20;99.90;;;;;;5113030;28;20066;-80
2022/09/28 00:17:46;;;;;;;1999.90;999.90;;;14.90;99.90;;;;;;5113835;28;20044;-80
2022/09/28 00:20:12;;;;;;;1999.90;999.90;;;14.20;99.90;;;;;;5113694;28;20048;-80
2022/09/28 00:22:38;;;;;;;1999.90;999.90;;;14.30;99.90;;;;;;5112929;28;20046;-80
2022/09/28 00:25:05;;;;;;;1999.90;999.90;;;14.00;99.90;;;;;;5113239;28;20074;-80
2022/09/28 00:27:31;;;;;;;1999.90;999.90;;;14.80;99.90;;;;;;5095385;28;20058;-80
2022/09/28 00:29:57;;;;;;;1999.90;999.90;;;14.70;99.90;;;;;;5113865;28;20172;-80
2022/09/28 00:32:23;;;;;;;1999.90;999.90;;;14.70;99.90;;;;;;5112459;28;20550;-79
2022/09/28 00:34:50;;;;;;;1999.90;999.90;;;14.70;99.90;;;;;;5113449;28;20526;-80
2022/09/28 00:37:17;;;;;;;1999.90;999.90;;;14.70;99.90;;;;;;5113091;28;20039;-80
2022/09/28 00:39:44;;;;;;;1999.90;999.90;;;14.80;99.90;;;;;;5095822;28;20168;-81
2022/09/28 00:42:24;;;;;;;1999.90;999.90;;;14.50;99.90;;;;;;5111980;28;20480;-81
2022/09/28 00:44:59;;;;;;;1999.90;999.90;;;14.70;99.90;;;;;;5113835;28;20383;-80
2022/09/28 00:47:30;;;;;;;1999.90;999.90;;;14.60;99.90;;;;;;5112786;28;20043;-80
2022/09/28 00:50:01;;;;;;;1999.90;999.90;;;13.90;99.90;;;;;;5112950;28;20494;-80
2022/09/28 00:52:38;;;;;;;1999.90;999.90;;;14.00;99.90;;;;;;5095164;28;20050;-79
2022/09/28 00:55:08;;;;;;;1999.90;999.90;;;13.90;99.90;;;;;;5113518;28;20050;-80
2022/09/28 00:57:35;;;;;;;1999.90;999.90;;;14.40;99.90;;;;;;5112781;28;20051;-80
2022/09/28 01:00:03;;;;;;;1999.90;999.90;;;14.70;99.90;;;;;;5112960;28;20046;-80
2022/09/28 01:02:29;;;;;;;1999.90;999.90;;;14.50;99.90;;;;;;5112983;28;20426;-80
2022/09/28 01:04:56;;;;;;;1999.90;999.90;;;14.00;99.90;;;;;;5095013;28;20043;-80
2022/09/28 01:07:23;;;;;;;1999.90;999.90;;;13.90;99.90;;;;;;5111850;28;20079;-80
2022/09/28 01:09:50;;;;;;;1999.90;999.90;;;14.40;99.90;;;;;;5112510;28;20035;-74
2022/09/28 01:12:15;;;;;;;1999.90;999.90;;;14.00;99.90;;;;;;5077928;28;20400;-74
2022/09/28 01:14:43;;;;;;;1999.90;999.90;;;13.30;99.90;;;;;;5112956;28;20035;-73
2022/09/28 01:17:27;;;;;;;1999.90;999.90;;;12.70;99.90;;;;;;5112002;28;20044;-74
2022/09/28 01:20:11;;;;;;;1999.90;999.90;;;13.10;99.90;;;;;;5094605;28;20425;-73
2022/09/28 01:23:23;;;;;;;1999.90;999.90;;;13.00;99.90;;;;;;5113308;28;20127;-74
2022/09/28 01:26:02;;;;;;;1999.90;999.90;;;13.40;99.90;;;;;;5101050;28;20354;-74
2022/09/28 01:28:28;;;;;;;1999.90;999.90;;;12.90;99.90;;;;;;5112171;28;20046;-74
2022/09/28 01:31:12;;;;;;;1999.90;999.90;;;12.30;99.90;;;;;;5112920;28;20062;-74
2022/09/28 01:33:40;;;;;;;1999.90;999.90;;;13.00;99.90;;;;;;5094782;28;20070;-76
2022/09/28 01:36:14;;;;;;;1999.90;999.90;;;12.30;99.90;;;;;;5094138;28;20122;-76
2022/09/28 01:38:48;;;;;;;1999.90;999.90;;;12.40;99.90;;;;;;5112771;28;20050;-75
2022/09/28 01:41:16;;;;;;;1999.90;999.90;;;12.60;99.90;;;;;;5077653;28;20098;-79
2022/09/28 01:43:48;;;;;;;1999.90;999.90;;;12.30;99.90;;;;;;5112585;28;20047;-75
2022/09/28 01:46:21;;;;;;;1999.90;999.90;;;12.40;99.90;;;;;;5112569;28;20039;-78
2022/09/28 01:49:11;;;;;;;1999.90;999.90;;;12.80;99.90;;;;;;5112424;28;20044;-75
2022/09/28 01:51:43;;;;;;;1999.90;999.90;;;13.00;99.90;;;;;;5112304;28;20096;-75
2022/09/28 01:54:16;;;;;;;1999.90;999.90;;;13.10;99.90;;;;;;5094129;28;20456;-75
2022/09/28 01:56:48;;;;;;;1999.90;999.90;;;12.80;99.90;;;;;;5112336;28;20071;-75
2022/09/28 01:59:21;;;;;;;1999.90;999.90;;;13.70;99.90;;;;;;5112289;28;20039;-84
2022/09/28 02:01:50;;;;;;;1999.90;999.90;;;12.90;99.90;;;;;;5112181;28;20491;-76
2022/09/28 02:04:25;;;;;;;1999.90;999.90;;;12.90;99.90;;;;;;5111493;28;20122;-76
2022/09/28 02:06:53;;;;;;;1999.90;999.90;;;13.40;99.90;;;;;;5112370;28;20047;-75
2022/09/28 02:09:28;;;;;;;1999.90;999.90;;;12.90;99.90;;;;;;5112080;28;20048;-76
2022/09/28 02:12:01;;;;;;;1999.90;999.90;;;13.80;99.90;;;;;;5111345;28;20049;-77
2022/09/28 02:14:28;;;;;;;1999.90;999.90;;;12.90;99.90;;;;;;5094082;28;20083;-76
2022/09/28 02:16:56;;;;;;;1999.90;999.90;;;13.40;99.90;;;;;;5094373;28;20353;-76
2022/09/28 02:19:25;;;;;;;1999.90;999.90;;;13.30;99.90;;;;;;5111708;28;20048;-76
2022/09/28 02:22:02;;;;;;;1999.90;999.90;;;14.90;99.90;;;;;;5111957;28;20573;-79
2022/09/28 02:24:31;;;;;;;1999.90;999.90;;;13.40;99.90;;;;;;5112328;28;20047;-76
2022/09/28 02:26:59;;;;;;;1999.90;999.90;;;13.00;99.90;;;;;;5112065;28;20096;-76
2022/09/28 02:29:25;;;;;;;1999.90;999.90;;;14.60;99.90;;;;;;5114854;28;20379;-77
2022/09/28 02:31:51;;;;;;;1999.90;999.90;;;12.90;99.90;;;;;;5115983;28;20054;-76
2022/09/28 02:34:16;;;;;;;1999.90;999.90;;;13.50;99.90;;;;;;5115801;28;20118;-77
2022/09/28 02:36:44;;;;;;;1999.90;999.90;;;12.90;99.90;;;;;;5097960;28;20600;-78
2022/09/28 02:39:16;;;;;;;1999.90;999.90;;;13.40;99.90;;;;;;5080016;28;20032;-77
2022/09/28 02:41:53;;;;;;;1999.90;999.90;;;12.90;99.90;;;;;;5115272;28;20047;-76
2022/09/28 02:44:42;;;;;;;1999.90;999.90;;;13.70;99.90;;;;;;5097904;28;20043;-76
2022/09/28 02:47:31;;;;;;;1999.90;999.90;;;13.30;99.90;;;;;;5115871;28;20127;-78
2022/09/28 02:50:19;;;;;;;1999.90;999.90;;;13.70;99.90;;;;;;5097201;28;20039;-78
2022/09/28 02:53:09;;;;;;;1999.90;999.90;;;13.30;99.90;;;;;;5097741;28;20072;-76
2022/09/28 02:55:50;;;;;;;1999.90;999.90;;;13.70;99.90;;;;;;5115080;28;20044;-76
2022/09/28 02:58:40;;;;;;;1999.90;999.90;;;12.80;99.90;;;;;;5115340;28;20043;-76
2022/09/28 03:01:26;;;;;;;1999.90;999.90;;;13.60;99.90;;;;;;5115737;28;20043;-77
2022/09/28 03:04:23;;;;;;;1999.90;999.90;;;12.90;99.90;;;;;;5115623;28;20040;-76
2022/09/28 03:07:11;;;;;;;1999.90;999.90;;;13.30;99.90;;;;;;5114585;28;20050;-76
2022/09/28 03:09:48;;;;;;;1999.90;999.90;;;12.80;99.90;;;;;;5114780;28;20043;-77
2022/09/28 03:12:17;;;;;;;1999.90;999.90;;;13.10;99.90;;;;;;5115000;28;20043;-76
2022/09/28 03:14:44;;;;;;;1999.90;999.90;;;14.00;99.90;;;;;;5096929;28;20051;-76
2022/09/28 03:17:09;;;;;;;1999.90;999.90;;;12.80;99.90;;;;;;5115048;28;20096;-76
2022/09/28 03:19:35;;;;;;;1999.90;999.90;;;13.10;99.90;;;;;;5114561;28;20047;-76
2022/09/28 03:22:01;;;;;;;1999.90;999.90;;;13.50;99.90;;;;;;5114783;28;20047;-76
2022/09/28 03:24:27;;;;;;;1999.90;999.90;;;13.80;99.90;;;;;;5114366;28;20050;-76
2022/09/28 03:26:53;;;;;;;1999.90;999.90;;;13.50;99.90;;;;;;5114519;28;20039;-77
2022/09/28 03:29:19;;;;;;;1999.90;999.90;;;12.70;99.90;;;;;;5114847;28;20039;-77
2022/09/28 03:31:46;;;;;;;1999.90;999.90;;;12.70;99.90;;;;;;5114671;28;20039;-76
2022/09/28 03:34:12;;;;;;;1999.90;999.90;;;12.80;99.90;;;;;;5096668;28;20039;-76
2022/09/28 03:36:37;;;;;;;1999.90;999.90;;;12.70;99.90;;;;;;5114571;28;20780;-76
2022/09/28 03:39:03;;;;;;;1999.90;999.90;;;13.30;99.90;;;;;;5113442;28;20047;-77
2022/09/28 03:41:29;;;;;;;1999.90;999.90;;;12.70;99.90;;;;;;5113893;28;20039;-76
2022/09/28 03:43:54;;;;;;;1999.90;999.90;;;14.60;99.90;;;;;;5114654;28;20051;-76
2022/09/28 03:46:20;;;;;;;1999.90;999.90;;;12.80;99.90;;;;;;5114464;28;20361;-76
2022/09/28 03:48:46;;;;;;;1999.90;999.90;;;13.40;99.90;;;;;;5114265;28;20039;-76
2022/09/28 03:51:13;;;;;;;1999.90;999.90;;;13.20;99.90;;;;;;5114655;28;20046;-84
2022/09/28 03:53:39;;;;;;;1999.90;999.90;;;13.30;99.90;;;;;;5096079;28;20040;-76
2022/09/28 03:56:12;;;;;;;1999.90;999.90;;;13.40;99.90;;;;;;5113820;28;20048;-76
2022/09/28 03:58:38;;;;;;;1999.90;999.90;;;13.40;99.90;;;;;;5112398;28;20162;-76
2022/09/28 04:01:06;;;;;;;1999.90;999.90;;;13.30;99.90;;;;;;5114334;28;20134;-76
2022/09/28 04:03:32;;;;;;;1999.90;999.90;;;13.90;99.90;;;;;;5095969;28;20035;-76
2022/09/28 04:05:58;;;;;;;1999.90;999.90;;;12.60;99.90;;;;;;5113297;28;20126;-76
2022/09/28 04:08:23;;;;;;;1999.90;999.90;;;12.60;99.90;;;;;;5094410;28;20139;-76
2022/09/28 04:10:49;;;;;;;1999.90;999.90;;;14.00;99.90;;;;;;5112434;28;20062;-81
2022/09/28 04:13:15;;;;;;;1999.90;999.90;;;13.00;99.90;;;;;;5113405;28;20516;-76
2022/09/28 04:15:41;;;;;;;1999.90;999.90;;;12.50;99.90;;;;;;5113283;28;20365;-76
2022/09/28 04:18:11;;;;;;;1999.90;999.90;;;13.10;99.90;;;;;;5113149;28;20094;-76
2022/09/28 04:20:39;;;;;;;1999.90;999.90;;;13.20;99.90;;;;;;5113327;28;20055;-75
2022/09/28 04:23:05;;;;;;;1999.90;999.90;;;12.40;99.90;;;;;;5113183;28;20048;-76
2022/09/28 04:25:31;;;;;;;1999.90;999.90;;;13.10;99.90;;;;;;5112738;28;20164;-78
2022/09/28 04:30:41;;;;;;;1999.90;999.90;;;12.30;99.90;;;;;;5113115;28;20074;-76
2022/09/28 04:33:07;;;;;;;1999.90;999.90;;;13.00;99.90;;;;;;5113589;28;20047;-76
2022/09/28 04:35:32;;;;;;;1999.90;999.90;;;13.00;99.90;;;;;;5112836;28;20488;-75
2022/09/28 04:37:58;;;;;;;1999.90;999.90;;;12.40;99.90;;;;;;5113055;28;20054;-76
2022/09/28 04:40:24;;;;;;;1999.90;999.90;;;13.00;99.90;;;;;;5112486;28;20628;-76
2022/09/28 04:42:54;;;;;;;1999.90;999.90;;;12.20;99.90;;;;;;5112404;28;20043;-76
2022/09/28 04:45:19;;;;;;;1999.90;999.90;;;12.20;99.90;;;;;;5112844;28;20089;-76
2022/09/28 04:47:45;;;;;;;1999.90;999.90;;;12.40;99.90;;;;;;5112936;28;20051;-77
2022/09/28 04:50:11;;;;;;;1999.90;999.90;;;12.20;99.90;;;;;;5113204;28;20515;-76
2022/09/28 04:52:37;;;;;;;1999.90;999.90;;;12.80;99.90;;;;;;5112152;28;20114;-76
2022/09/28 04:55:04;;;;;;;1999.90;999.90;;;12.30;99.90;;;;;;5112783;28;20062;-77
2022/09/28 04:57:29;;;;;;;1999.90;999.90;;;12.60;99.90;;;;;;5112220;28;20062;-76
2022/09/28 04:59:55;;;;;;;1999.90;999.90;;;13.00;99.90;;;;;;5111413;28;20044;-76
2022/09/28 05:02:21;;;;;;;1999.90;999.90;;;12.90;99.90;;;;;;5094664;28;20054;-76
2022/09/28 05:04:46;;;;;;;1999.90;999.90;;;12.50;99.90;;;;;;5094077;28;20126;-76
2022/09/28 05:07:12;;;;;;;1999.90;999.90;;;13.00;99.90;;;;;;5112968;28;20131;-77
2022/09/28 05:09:37;;;;;;;1999.90;999.90;;;12.80;99.90;;;;;;5112296;28;20047;-76
2022/09/28 05:12:03;;;;;;;1999.90;999.90;;;12.80;99.90;;;;;;5094153;28;20086;-77
2022/09/28 05:14:29;;;;;;;1999.90;999.90;;;12.90;99.90;;;;;;5093443;28;20039;-76
2022/09/28 05:16:54;;;;;;;1999.90;999.90;;;12.20;99.90;;;;;;5111081;28;20055;-76
2022/09/28 05:19:20;;;;;;;1999.90;999.90;;;12.90;99.90;;;;;;5112606;28;20051;-76
2022/09/28 05:21:47;;;;;;;1999.90;999.90;;;12.90;99.90;;;;;;5094004;28;20044;-76
2022/09/28 05:24:13;;;;;;;1999.90;999.90;;;12.90;99.90;;;;;;5112255;28;20051;-76
2022/09/28 05:26:39;;;;;;;1999.90;999.90;;;12.60;99.90;;;;;;5111358;28;20614;-82
2022/09/28 05:29:04;;;;;;;1999.90;999.90;;;12.40;99.90;;;;;;5112624;28;20047;-77
2022/09/28 05:31:31;;;;;;;1999.90;999.90;;;12.90;99.90;;;;;;5094523;28;20052;-77
2022/09/28 05:33:57;;;;;;;1999.90;999.90;;;12.90;99.90;;;;;;5094499;28;20478;-77
2022/09/28 05:36:25;;;;;;;1999.90;999.90;;;12.30;99.90;;;;;;5112155;28;20078;-77
2022/09/28 05:38:51;;;;;;;1999.90;999.90;;;12.90;99.90;;;;;;5111999;28;20052;-78
2022/09/28 05:41:17;;;;;;;1999.90;999.90;;;12.70;99.90;;;;;;5112224;28;20126;-79
2022/09/28 05:43:44;;;;;;;1999.90;999.90;;;12.90;99.90;;;;;;5112502;28;20131;-77
2022/09/28 05:46:10;;;;;;;1999.90;999.90;;;12.30;99.90;;;;;;5094529;28;20058;-77
2022/09/28 05:48:36;;;;;;;1999.90;999.90;;;12.30;99.90;;;;;;5112678;28;20503;-77
2022/09/28 05:51:01;;;;;;;1999.90;999.90;;;12.80;99.90;;;;;;5093872;28;20044;-77
2022/09/28 05:53:27;;;;;;;1999.90;999.90;;;13.00;99.90;;;;;;5112473;28;20047;-77
2022/09/28 05:55:58;;;;;;;1999.90;999.90;;;13.30;99.90;;;;;;5111955;28;20051;-79
2022/09/28 05:58:23;;;;;;;1999.90;999.90;;;12.40;99.90;;;;;;5112009;28;20044;-77
2022/09/28 06:00:53;;;;;;;1999.90;999.90;;;12.50;99.90;;;;;;5112431;28;20480;-77
2022/09/28 06:03:19;;;;;;;1999.90;999.90;;;13.40;99.90;;;;;;5113924;28;20055;-77
2022/09/28 06:05:46;;;;;;;1999.90;999.90;;;13.30;99.90;;;;;;5116409;28;20040;-77
2022/09/28 06:08:11;;;;;;;1999.90;999.90;;;12.80;99.90;;;;;;5115870;28;20070;-77
2022/09/28 06:10:37;;;;;;;1999.90;999.90;;;12.70;99.90;;;;;;5116554;28;20554;-77
2022/09/28 06:13:05;;;;;;;1999.90;999.90;;;13.30;99.90;;;;;;5115682;28;20097;-77
2022/09/28 06:15:32;;;;;;;1999.90;999.90;;;12.60;99.90;;;;;;5116786;28;20079;-77
2022/09/28 06:18:13;;;;;;;1999.90;999.90;;;13.20;99.90;;;;;;5115404;28;20089;-76
2022/09/28 06:20:42;;;;;;;1999.90;999.90;;;13.40;99.90;;;;;;5116045;28;20048;-76
2022/09/28 06:23:12;;;;;;;1999.90;999.90;;;13.60;99.90;;;;;;5097504;28;20048;-77
2022/09/28 06:25:38;;;;;;;1999.90;999.90;;;12.50;99.90;;;;;;5116129;28;20091;-77
2022/09/28 06:28:12;;;;;;;1999.90;999.90;;;13.10;99.90;;;;;;5096271;28;20274;-77
2022/09/28 06:30:39;;;;;;;1999.90;999.90;;;13.30;99.90;;;;;;5115665;28;20039;-77
2022/09/28 06:33:07;;;;;;;1999.90;999.90;;;13.30;99.90;;;;;;5115452;28;20043;-77
2022/09/28 06:35:33;;;;;;;1999.90;999.90;;;12.90;99.90;;;;;;5116475;28;20043;-77
2022/09/28 06:37:59;;;;;;;1999.90;999.90;;;12.50;99.90;;;;;;5114998;28;20472;-77
2022/09/28 06:40:26;;;;;;;1999.90;999.90;;;13.20;99.90;;;;;;5097001;28;20118;-77
2022/09/28 06:43:00;;;;;;;1999.90;999.90;;;12.90;99.90;;;;;;5114870;28;20044;-77
2022/09/28 06:45:27;;;;;;;1999.90;999.90;;;12.60;99.90;;;;;;5116002;28;20044;-77
2022/09/28 06:47:57;;;;;;;1999.90;999.90;;;12.60;99.90;;;;;;5115637;28;20127;-77
2022/09/28 06:50:31;;;;;;;1999.90;999.90;;;14.40;99.90;;;;;;5114642;28;20069;-77
2022/09/28 06:52:57;;;;;;;1999.90;999.90;;;12.90;99.90;;;;;;5115449;28;20043;-77
2022/09/28 06:55:23;;;;;;;1999.90;999.90;;;13.50;99.90;;;;;;5097519;28;20036;-77
2022/09/28 06:58:02;;;;;;;1999.90;999.90;;;15.10;99.90;;;;;;5114632;28;20058;-78
2022/09/28 07:00:30;;;;;;;1999.90;999.90;;;14.00;99.90;;;;;;5115403;28;20049;-78
2022/09/28 07:02:55;;;;;;;;;;;14.00;99.90;;;;;;5115405;28;20047;-77
2022/09/28 07:05:25;;;;;;;1999.90;999.90;;;13.30;99.90;;;;;;5115625;28;20382;-77
2022/09/28 07:07:54;;;;;;;1999.90;999.90;;;14.30;99.90;;;;;;5115635;28;20055;-77
2022/09/28 07:10:22;;;;;;;1999.90;999.90;;;13.40;99.90;;;;;;5115268;28;20160;-81
2022/09/28 07:12:49;;;;;;;1999.90;999.90;;;14.10;99.90;;;;;;5115025;28;20043;-77
2022/09/28 07:15:15;;;;;;;1999.90;999.90;;;13.60;99.90;;;;;;5114339;28;20050;-76
2022/09/28 07:17:41;;;;;;;1999.90;999.90;;;14.70;99.90;;;;;;5115328;28;20123;-77
2022/09/28 07:20:06;;;;;;;1999.90;999.90;;;14.50;99.90;;;;;;5114124;28;20055;-76
2022/09/28 07:22:32;;;;;;;1999.90;999.90;;;13.80;99.90;;;;;;5114898;28;20044;-76
2022/09/28 07:24:58;;;;;;;1999.90;999.90;;;15.60;99.90;;;;;;5113859;28;20403;-77
2022/09/28 07:27:24;;;;;;;1999.90;999.90;;;14.70;99.90;;;;;;5110418;28;20040;-76
2022/09/28 07:29:51;;;;;;;1999.90;999.90;;;14.80;99.90;;;;;;5096985;28;20039;-76
2022/09/28 07:32:20;;;;;;;;;;;14.30;99.90;;;;;;5096397;28;20047;-76
2022/09/28 07:34:47;;;;;;;1999.90;999.90;;;14.40;99.90;;;;;;5114099;28;19938;-76
2022/09/28 07:37:14;;;;;;;1999.90;999.90;;;15.30;99.90;;;;;;5113374;28;20320;-76
2022/09/28 07:42:28;;;;;;;1999.90;999.90;;;14.90;99.90;;;;;;5095673;28;20403;-76
2022/09/28 07:44:55;;;;;;;1999.90;999.90;;;14.20;99.90;;;;;;5096432;28;20079;-76
2022/09/28 07:47:25;;;;;;;1999.90;999.90;;;14.20;99.90;;;;;;5096480;28;20134;-76
2022/09/28 07:50:00;;;;;;;1999.90;999.90;;;14.40;99.90;;;;;;5114579;28;20050;-76
2022/09/28 07:52:27;;;;;;;1999.90;999.90;;;15.00;99.90;;;;;;5113163;28;20436;-75
2022/09/28 07:54:53;;;;;;;1999.90;999.90;;;14.80;99.90;;;;;;5114636;28;20043;-78
2022/09/28 07:57:23;;;;;;;1999.90;999.90;;;14.80;99.90;;;;;;5095900;28;20051;-76
2022/09/28 07:59:49;;;;;;;1999.90;999.90;;;14.60;99.90;;;;;;5114302;28;20040;-77
2022/09/28 08:02:19;;;;;;;1999.90;999.90;;;14.30;99.90;;;;;;5108991;28;20323;-77
2022/09/28 08:04:48;;;;;;;1999.90;999.90;;;14.90;99.90;;;;;;5114310;28;20047;-77
2022/09/28 08:07:16;;;;;;;1999.90;999.90;;;14.70;99.90;;;;;;5095522;28;20051;-77
2022/09/28 08:09:45;;;;;;;1999.90;999.90;;;14.70;99.90;;;;;;5113778;28;20118;-77
2022/09/28 08:12:11;;;;;;;1999.90;999.90;;;15.60;99.90;;;;;;5112912;28;20051;-77
2022/09/28 08:14:38;;;;;;;1999.90;999.90;;;15.90;99.90;;;;;;5113845;28;20407;-76
2022/09/28 08:17:05;;;;;;;1999.90;999.90;;;16.70;99.90;;;;;;5113510;28;20392;-76
2022/09/28 08:22:19;;;;;;;1999.90;999.90;;;17.20;99.90;;;;;;5113203;28;20044;-76
2022/09/28 08:24:46;;;;;;;1999.90;999.90;;;16.30;99.90;;;;;;5113681;28;20050;-76
2022/09/28 08:27:13;;;;;;;1999.90;999.90;;;16.00;99.90;;;;;;5094109;28;20055;-77
2022/09/28 08:29:38;;;;;;;1999.90;999.90;;;15.90;99.90;;;;;;5113103;28;20361;-77
2022/09/28 08:32:07;;;;;;;1999.90;999.90;;;16.90;99.90;;;;;;5113083;28;20097;-76
2022/09/28 08:34:37;;;;;;;1999.90;999.90;;;16.00;99.90;;;;;;5095807;28;20055;-76
2022/09/28 08:37:05;;;;;;;1999.90;999.90;;;16.70;99.90;;;;;;5112865;28;20476;-77
2022/09/28 08:39:33;;;;;;;1999.90;999.90;;;15.70;99.90;;;;;;5112982;28;20446;-76
2022/09/28 08:42:07;;;;;;;1999.90;999.90;;;16.80;99.90;;;;;;5113114;28;20047;-77
2022/09/28 08:44:56;;;;;;;1999.90;999.90;;;16.50;99.90;;;;;;5113715;28;20139;-77
2022/09/28 08:50:17;;;;;;;1999.90;999.90;;;19.50;99.90;;;;;;5112499;28;20050;-76
2022/09/28 08:52:47;;;;;;;1999.90;999.90;;;20.20;99.90;;;;;;5113209;28;20122;-76
2022/09/28 08:55:25;;;;;;;1999.90;999.90;;;19.30;99.90;;;;;;5112619;28;20087;-76
2022/09/28 08:58:03;;;;;;;1999.90;999.90;;;19.30;99.90;;;;;;5112633;28;20105;-76
2022/09/28 09:00:57;;;;;;;1999.90;999.90;;;18.20;99.90;;;;;;5113312;28;20046;-75
2022/09/28 09:03:36;;;;;;;1999.90;999.90;;;18.60;99.90;;;;;;5092127;28;20052;-74
2022/09/28 09:06:17;;;;;;;1999.90;999.90;;;18.30;99.90;;;;;;5095280;28;20054;-76
2022/09/28 09:09:06;;;;;;;1999.90;999.90;;;18.50;99.90;;;;;;5113161;28;20510;-74
2022/09/28 09:11:56;;;;;;;1999.90;999.90;;;18.90;99.90;;;;;;5072597;28;20051;-74
2022/09/28 09:14:30;;;;;;;;;;;19.60;99.90;;;;;;5084957;28;20055;-74
2022/09/28 09:17:33;;;;;;;1999.90;999.90;;;19.80;99.90;;;;;;5113286;28;20123;-75
2022/09/28 09:20:23;;;;;;;1999.90;999.90;;;19.50;99.90;;;;;;5113040;28;20051;-75
2022/09/28 09:22:58;;;;;;;1999.90;999.90;;;19.70;99.90;;;;;;5112836;28;20044;-75
2022/09/28 09:25:38;;;;;;;1999.90;999.90;;;19.80;99.90;;;;;;5112581;28;20043;-77
2022/09/28 09:28:23;;;;;;;1999.90;999.90;;;20.60;99.90;;;;;;5112389;28;20087;-77
2022/09/28 09:31:14;;;;;;;1999.90;999.90;;;21.10;99.90;;;;;;5112918;28;20480;-75
2022/09/28 09:34:02;;;;;;;1999.90;999.90;;;20.20;99.90;;;;;;5094828;28;20073;-78
2022/09/28 09:37:07;;;;;;;1999.90;999.90;;;19.90;99.90;;;;;;5094609;28;20399;-77
2022/09/28 09:40:07;;;;;;;1999.90;999.90;;;20.30;99.90;;;;;;5118997;28;20492;-75
2022/09/28 09:42:48;;;;;;;1999.90;999.90;;;21.70;99.90;;;;;;5119179;28;20381;-76
2022/09/28 09:45:44;;;;;;;1999.90;999.90;;;22.00;99.90;;;;;;5118740;28;20500;-77
2022/09/28 09:48:24;;;;;;;1999.90;999.90;;;21.00;99.90;;;;;;5119311;28;20079;-78
2022/09/28 09:51:18;;;;;;;1999.90;999.90;;;21.10;99.90;;;;;;5119441;28;20036;-78
2022/09/28 09:54:14;;;;;;;1999.90;999.90;;;19.70;99.90;;;;;;5119665;28;20043;-80
2022/09/28 09:56:56;;;;;;;1999.90;999.90;;;20.00;99.90;;;;;;5089824;28;20104;-76
2022/09/28 09:59:32;;;;;;;1999.90;999.90;;;19.70;99.90;;;;;;5119053;28;20040;-76
2022/09/28 10:02:01;;;;;;;1999.90;999.90;;;19.20;99.90;;;;;;5119064;28;20082;-75
2022/09/28 10:04:33;;;;;;;1999.90;999.90;;;19.00;99.90;;;;;;5119433;28;20524;-76
2022/09/28 10:07:08;;;;;;;1999.90;999.90;;;18.50;99.90;;;;;;5119434;28;20048;-76
2022/09/28 10:09:41;;;;;;;1999.90;999.90;;;18.50;99.90;;;;;;5118454;28;20043;-80
2022/09/28 10:12:10;;;;;;;1999.90;999.90;;;17.90;99.90;;;;;;5113502;28;20052;-76
2022/09/28 10:14:36;;;;;;;1999.90;999.90;;;17.70;99.90;;;;;;5117672;28;20059;-76
2022/09/28 10:17:03;;;;;;;1999.90;999.90;;;18.10;99.90;;;;;;5119203;28;20047;-77
2022/09/28 10:19:33;;;;;;;1999.90;999.90;;;18.20;99.90;;;;;;5100550;28;20043;-76
2022/09/28 10:22:03;;;;;;;1999.90;999.90;;;18.20;99.90;;;;;;5100539;28;20052;-76
2022/09/28 10:24:37;;;;;;;1999.90;999.90;;;18.40;99.90;;;;;;5118715;28;20040;-75
2022/09/28 10:27:32;;;;;;;1999.90;999.90;;;18.10;99.90;;;;;;5118811;28;20043;-76
2022/09/28 10:30:16;;;;;;;1999.90;999.90;;;18.60;99.90;;;;;;5118762;28;20042;-76
2022/09/28 10:32:47;;;;;;;1999.90;999.90;;;19.90;99.90;;;;;;5101032;28;20047;-76
2022/09/28 10:35:26;;;;;;;1999.90;999.90;;;21.00;99.90;;;;;;5118837;28;20048;-78
2022/09/28 10:38:04;;;;;;;1999.90;999.90;;;21.90;99.90;;;;;;5119089;28;20090;-77
2022/09/28 10:40:33;;;;;;;1999.90;999.90;;;23.90;99.90;;;;;;5096687;28;20100;-76
2022/09/28 10:43:05;;;;;;;1999.90;999.90;;;25.10;99.90;;;;;;5117834;28;20179;-78
2022/09/28 10:45:35;;;;;;;1999.90;999.90;;;23.90;99.90;;;;;;5117976;28;20100;-77
2022/09/28 10:48:05;;;;;;;1999.90;999.90;;;24.30;99.90;;;;;;5118214;28;20383;-77
2022/09/28 10:50:31;;;;;;;1999.90;999.90;;;24.20;99.90;;;;;;5114544;28;20040;-77
2022/09/28 10:53:19;;;;;;;1999.90;999.90;;;24.10;99.90;;;;;;5079966;28;20142;-77
2022/09/28 10:55:59;;;;;;;1999.90;999.90;;;23.70;99.90;;;;;;5114647;28;20047;-77
2022/09/28 10:58:38;;;;;;;1999.90;857.70;;;23.20;99.90;;;;;;5095938;28;20527;-77
2022/09/28 11:01:11;;;;;;;1999.90;999.90;;;23.00;99.90;;;;;;5097622;28;20496;-78
2022/09/28 11:03:47;;;;;;;1999.90;999.90;;;23.10;99.90;;;;;;5115590;28;20055;-77
2022/09/28 11:06:14;;;;;;;1999.90;999.90;;;23.00;99.90;;;;;;5114521;28;20039;-82
2022/09/28 11:08:42;;;;;;;1999.90;999.90;;;23.60;99.90;;;;;;5096531;28;20052;-78
2022/09/28 11:11:14;;;;;;;981.60;818.35;;;25.20;99.90;;;;;;5115501;28;20093;-79
2022/09/28 11:13:52;;;;;;;1999.90;999.90;;;26.10;99.90;;;;;;5114955;28;20039;-80
2022/09/28 11:16:29;;;;;;;951.28;871.95;;;27.60;99.90;;;;;;5115518;28;20052;-89
2022/09/28 11:18:57;;;;;;;910.50;839.15;;;26.60;99.90;;;;;;5114634;28;20484;-78
2022/09/28 11:21:31;;;;;;;923.30;849.38;;;27.60;99.90;;;;;;5114532;28;20043;-78
2022/09/28 11:24:18;;;;;;;816.80;758.13;;;28.50;99.90;;;;;;5115529;28;20097;-77
2022/09/28 11:27:18;;;;;;;804.65;747.63;;;27.80;99.90;;;;;;5115085;28;20062;-78
2022/09/28 11:29:54;;;;;;;857.45;792.67;;;26.50;99.90;;;;;;5115258;28;20039;-80
2022/09/28 11:32:27;;;;;;;426.42;400.63;;;28.90;99.90;;;;;;5114120;28;20267;-91
2022/09/28 11:34:56;;;;;;;617.30;576.53;;;29.20;99.90;;;;;;5114225;28;20047;-79
2022/09/28 11:37:43;;;;;;;591.08;552.38;;;30.00;99.90;;;;;;5114953;28;20043;-79
2022/09/28 11:40:43;;;;;;;411.67;386.90;;;30.00;99.90;;;;;;5080422;28;20054;-79
2022/09/28 11:43:25;;;;;;;340.48;321.00;;;29.20;99.90;;;;;;5096946;28;20062;-78
2022/09/28 11:46:04;;;;;;;328.60;309.67;;;27.00;99.90;;;;;;5097475;28;20430;-78
2022/09/28 11:48:44;;;;;;;318.23;300.67;;;24.50;99.90;;;;;;5114764;28;20105;-79
2022/09/28 11:51:17;;;;;;;372.85;351.23;;;24.10;99.90;;;;;;5116269;28;20035;-78
2022/09/28 11:53:53;;;;;;;295.98;279.33;;;25.10;99.90;;;;;;5116135;28;20395;-78
2022/09/28 11:56:26;;;;;;;386.48;361.15;;;23.10;99.90;;;;;;5118914;28;20047;-78
2022/09/28 11:58:56;;;;;;;377.05;354.75;;;22.60;99.90;;;;;;5117251;28;20056;-80
2022/09/28 12:01:24;;;;;;;618.25;576.17;;;22.50;99.90;;;;;;5118403;28;20039;-80
2022/09/28 12:03:59;;;;;;;655.50;610.75;;;22.70;99.90;;;;;;5116620;28;20047;-77
2022/09/28 12:06:36;;;;;;;681.42;635.05;;;22.30;99.90;;;;;;5116340;28;20507;-87
2022/09/28 12:09:24;;;;;;;656.45;611.60;;;22.40;99.90;;;;;;5099243;28;20043;-77
2022/09/28 12:11:57;;;;;;;608.33;566.92;;;22.30;99.90;;;;;;5116370;28;20043;-76
2022/09/28 12:14:33;;;;;;;682.75;635.33;;;21.40;99.90;;;;;;5114943;28;20039;-77
2022/09/28 12:17:19;;;;;;;687.45;638.85;;;21.90;99.90;;;;;;5096907;28;20513;-78
2022/09/28 12:19:54;;;;;;;1999.90;906.20;;;21.80;99.90;;;;;;5113774;28;20055;-77
2022/09/28 12:22:30;;;;;;;1999.90;945.78;;;22.10;99.90;;;;;;5114314;28;20404;-77
2022/09/28 12:24:57;;;;;;;1960.60;866.05;;;22.30;99.90;;;;;;5114354;28;20048;-77
2022/09/28 12:27:40;;;;;;;1999.90;999.90;;;22.20;99.90;;;;;;5113364;28;20491;-77
2022/09/28 12:30:21;;;;;;;1827.28;824.33;;;22.40;99.90;;;;;;5114148;28;20043;-77
2022/09/28 12:32:52;;;;;;;773.40;707.38;;;22.50;99.90;;;;;;5095732;28;20055;-76
2022/09/28 12:35:27;;;;;;;661.08;607.13;;;22.00;99.90;;;;;;5114149;28;20138;-77